sensor_id;sensor_type;location;lat;lon;timestamp;P1;durP1;ratioP1;P2;durP2;ratioP2
31676;SDS011;18385;51.572;6.578;2023-02-15T00:01:10;28.45;;;10.98;;
31676;SDS011;18385;51.572;6.578;2023-02-15T00:03:36;34.20;;;11.90;;
31676;SDS011;18385;51.572;6.578;2023-02-15T00:06:02;37.25;;;13.10;;
31676;SDS011;18385;51.572;6.578;2023-02-15T00:08:29;31.25;;;12.70;;
31676;SDS011;18385;51.572;6.578;2023-02-15T00:11:08;32.60;;;11.50;;
31676;SDS011;18385;51.572;6.578;2023-02-15T00:13:36;32.70;;;12.75;;
31676;SDS011;18385;51.572;6.578;2023-02-15T00:16:04;30.13;;;11.90;;
31676;SDS011;18385;51.572;6.578;2023-02-15T00:18:31;27.52;;;11.68;;
31676;SDS011;18385;51.572;6.578;2023-02-15T00:20:57;24.77;;;11.90;;
31676;SDS011;18385;51.572;6.578;2023-02-15T00:23:23;29.52;;;12.05;;
31676;SDS011;18385;51.572;6.578;2023-02-15T00:25:49;30.52;;;12.43;;
31676;SDS011;18385;51.572;6.578;2023-02-15T00:28:15;34.08;;;13.23;;
31676;SDS011;18385;51.572;6.578;2023-02-15T00:30:40;26.95;;;10.60;;
31676;SDS011;18385;51.572;6.578;2023-02-15T00:33:06;32.28;;;12.20;;
31676;SDS011;18385;51.572;6.578;2023-02-15T00:35:32;32.35;;;12.25;;
31676;SDS011;18385;51.572;6.578;2023-02-15T00:37:58;29.35;;;11.93;;
31676;SDS011;18385;51.572;6.578;2023-02-15T00:40:23;35.85;;;13.65;;
31676;SDS011;18385;51.572;6.578;2023-02-15T00:42:49;28.48;;;12.40;;
31676;SDS011;18385;51.572;6.578;2023-02-15T00:45:15;28.77;;;12.15;;
31676;SDS011;18385;51.572;6.578;2023-02-15T00:47:40;28.25;;;12.00;;
31676;SDS011;18385;51.572;6.578;2023-02-15T00:50:06;32.58;;;14.32;;
31676;SDS011;18385;51.572;6.578;2023-02-15T00:52:32;28.65;;;11.68;;
31676;SDS011;18385;51.572;6.578;2023-02-15T00:54:57;29.45;;;11.20;;
31676;SDS011;18385;51.572;6.578;2023-02-15T00:57:23;24.95;;;10.38;;
31676;SDS011;18385;51.572;6.578;2023-02-15T00:59:49;30.42;;;12.18;;
31676;SDS011;18385;51.572;6.578;2023-02-15T01:02:14;29.52;;;11.65;;
31676;SDS011;18385;51.572;6.578;2023-02-15T01:04:40;31.52;;;12.50;;
31676;SDS011;18385;51.572;6.578;2023-02-15T01:07:06;29.17;;;12.20;;
31676;SDS011;18385;51.572;6.578;2023-02-15T01:09:32;28.02;;;12.02;;
31676;SDS011;18385;51.572;6.578;2023-02-15T01:11:57;26.00;;;11.75;;
31676;SDS011;18385;51.572;6.578;2023-02-15T01:14:25;31.65;;;11.50;;
31676;SDS011;18385;51.572;6.578;2023-02-15T01:16:51;27.02;;;12.18;;
31676;SDS011;18385;51.572;6.578;2023-02-15T01:19:16;32.03;;;12.32;;
31676;SDS011;18385;51.572;6.578;2023-02-15T01:21:42;33.33;;;12.60;;
31676;SDS011;18385;51.572;6.578;2023-02-15T01:24:14;27.05;;;11.77;;
31676;SDS011;18385;51.572;6.578;2023-02-15T01:26:40;28.90;;;11.35;;
31676;SDS011;18385;51.572;6.578;2023-02-15T01:29:06;31.15;;;12.13;;
31676;SDS011;18385;51.572;6.578;2023-02-15T01:31:32;29.85;;;12.70;;
31676;SDS011;18385;51.572;6.578;2023-02-15T01:33:57;32.25;;;12.25;;
31676;SDS011;18385;51.572;6.578;2023-02-15T01:36:23;32.78;;;11.57;;
31676;SDS011;18385;51.572;6.578;2023-02-15T01:38:50;32.28;;;12.70;;
31676;SDS011;18385;51.572;6.578;2023-02-15T01:41:16;30.55;;;12.02;;
31676;SDS011;18385;51.572;6.578;2023-02-15T01:43:55;32.88;;;13.05;;
31676;SDS011;18385;51.572;6.578;2023-02-15T01:46:27;30.10;;;13.17;;
31676;SDS011;18385;51.572;6.578;2023-02-15T01:51:34;27.80;;;12.63;;
31676;SDS011;18385;51.572;6.578;2023-02-15T01:54:06;36.33;;;13.55;;
31676;SDS011;18385;51.572;6.578;2023-02-15T01:56:51;33.83;;;13.00;;
31676;SDS011;18385;51.572;6.578;2023-02-15T01:59:20;33.55;;;12.10;;
31676;SDS011;18385;51.572;6.578;2023-02-15T02:01:48;31.30;;;12.10;;
31676;SDS011;18385;51.572;6.578;2023-02-15T02:04:18;33.25;;;13.45;;
31676;SDS011;18385;51.572;6.578;2023-02-15T02:06:56;38.45;;;12.73;;
31676;SDS011;18385;51.572;6.578;2023-02-15T02:09:23;31.35;;;12.25;;
31676;SDS011;18385;51.572;6.578;2023-02-15T02:11:49;29.02;;;13.32;;
31676;SDS011;18385;51.572;6.578;2023-02-15T02:14:15;30.17;;;13.02;;
31676;SDS011;18385;51.572;6.578;2023-02-15T02:31:43;38.67;;;13.48;;
31676;SDS011;18385;51.572;6.578;2023-02-15T02:37:08;35.65;;;13.38;;
31676;SDS011;18385;51.572;6.578;2023-02-15T02:40:10;34.42;;;14.02;;
31676;SDS011;18385;51.572;6.578;2023-02-15T02:45:16;32.50;;;12.60;;
31676;SDS011;18385;51.572;6.578;2023-02-15T02:47:50;36.33;;;14.18;;
31676;SDS011;18385;51.572;6.578;2023-02-15T02:50:18;39.95;;;14.32;;
31676;SDS011;18385;51.572;6.578;2023-02-15T02:52:50;36.85;;;13.23;;
31676;SDS011;18385;51.572;6.578;2023-02-15T02:55:25;37.35;;;13.32;;
31676;SDS011;18385;51.572;6.578;2023-02-15T02:58:11;37.20;;;14.55;;
31676;SDS011;18385;51.572;6.578;2023-02-15T03:00:57;33.42;;;13.30;;
31676;SDS011;18385;51.572;6.578;2023-02-15T03:03:41;36.72;;;13.20;;
31676;SDS011;18385;51.572;6.578;2023-02-15T03:06:56;42.10;;;13.75;;
31676;SDS011;18385;51.572;6.578;2023-02-15T03:09:14;32.58;;;13.88;;
31676;SDS011;18385;51.572;6.578;2023-02-15T03:12:11;32.83;;;13.82;;
31676;SDS011;18385;51.572;6.578;2023-02-15T03:14:46;33.83;;;13.93;;
31676;SDS011;18385;51.572;6.578;2023-02-15T03:17:16;40.45;;;15.85;;
31676;SDS011;18385;51.572;6.578;2023-02-15T03:19:45;35.78;;;14.18;;
31676;SDS011;18385;51.572;6.578;2023-02-15T03:25:00;38.58;;;14.40;;
31676;SDS011;18385;51.572;6.578;2023-02-15T03:27:32;34.70;;;13.73;;
31676;SDS011;18385;51.572;6.578;2023-02-15T03:30:02;37.05;;;15.38;;
31676;SDS011;18385;51.572;6.578;2023-02-15T03:32:31;36.90;;;14.35;;
31676;SDS011;18385;51.572;6.578;2023-02-15T03:34:58;38.40;;;14.93;;
31676;SDS011;18385;51.572;6.578;2023-02-15T03:40:19;35.00;;;14.63;;
31676;SDS011;18385;51.572;6.578;2023-02-15T03:46:11;44.20;;;14.52;;
31676;SDS011;18385;51.572;6.578;2023-02-15T03:48:41;43.40;;;14.88;;
31676;SDS011;18385;51.572;6.578;2023-02-15T03:51:14;33.63;;;13.63;;
31676;SDS011;18385;51.572;6.578;2023-02-15T03:54:11;42.45;;;15.82;;
31676;SDS011;18385;51.572;6.578;2023-02-15T03:57:07;34.58;;;14.40;;
31676;SDS011;18385;51.572;6.578;2023-02-15T03:59:54;34.17;;;13.70;;
31676;SDS011;18385;51.572;6.578;2023-02-15T04:02:49;38.78;;;14.07;;
31676;SDS011;18385;51.572;6.578;2023-02-15T04:05:17;39.70;;;14.43;;
31676;SDS011;18385;51.572;6.578;2023-02-15T04:07:43;35.83;;;14.60;;
31676;SDS011;18385;51.572;6.578;2023-02-15T04:10:08;39.63;;;14.23;;
31676;SDS011;18385;51.572;6.578;2023-02-15T04:12:53;34.40;;;14.90;;
31676;SDS011;18385;51.572;6.578;2023-02-15T04:15:19;38.55;;;15.15;;
31676;SDS011;18385;51.572;6.578;2023-02-15T04:18:03;38.67;;;14.73;;
31676;SDS011;18385;51.572;6.578;2023-02-15T04:20:29;36.28;;;14.07;;
31676;SDS011;18385;51.572;6.578;2023-02-15T04:23:13;40.38;;;14.65;;
31676;SDS011;18385;51.572;6.578;2023-02-15T04:25:57;42.28;;;15.68;;
31676;SDS011;18385;51.572;6.578;2023-02-15T04:28:23;39.78;;;14.25;;
31676;SDS011;18385;51.572;6.578;2023-02-15T04:30:49;35.33;;;13.45;;
31676;SDS011;18385;51.572;6.578;2023-02-15T04:33:14;37.92;;;16.33;;
31676;SDS011;18385;51.572;6.578;2023-02-15T04:35:40;35.47;;;14.88;;
31676;SDS011;18385;51.572;6.578;2023-02-15T04:40:35;38.42;;;15.60;;
31676;SDS011;18385;51.572;6.578;2023-02-15T04:43:01;35.72;;;14.95;;
31676;SDS011;18385;51.572;6.578;2023-02-15T04:45:26;41.63;;;14.40;;
31676;SDS011;18385;51.572;6.578;2023-02-15T04:47:52;43.05;;;15.80;;
31676;SDS011;18385;51.572;6.578;2023-02-15T04:50:18;38.75;;;14.82;;
31676;SDS011;18385;51.572;6.578;2023-02-15T04:52:44;38.10;;;13.60;;
31676;SDS011;18385;51.572;6.578;2023-02-15T04:55:09;39.53;;;14.23;;
31676;SDS011;18385;51.572;6.578;2023-02-15T04:57:35;39.25;;;15.70;;
31676;SDS011;18385;51.572;6.578;2023-02-15T05:00:01;38.70;;;14.95;;
31676;SDS011;18385;51.572;6.578;2023-02-15T05:02:27;40.70;;;14.90;;
31676;SDS011;18385;51.572;6.578;2023-02-15T05:04:53;39.38;;;15.18;;
31676;SDS011;18385;51.572;6.578;2023-02-15T05:07:18;40.92;;;15.43;;
31676;SDS011;18385;51.572;6.578;2023-02-15T05:09:45;43.47;;;16.00;;
31676;SDS011;18385;51.572;6.578;2023-02-15T05:12:11;39.35;;;14.90;;
31676;SDS011;18385;51.572;6.578;2023-02-15T05:14:36;44.53;;;15.48;;
31676;SDS011;18385;51.572;6.578;2023-02-15T05:17:02;42.90;;;15.85;;
31676;SDS011;18385;51.572;6.578;2023-02-15T05:19:30;45.28;;;15.98;;
31676;SDS011;18385;51.572;6.578;2023-02-15T05:21:55;39.83;;;15.75;;
31676;SDS011;18385;51.572;6.578;2023-02-15T05:24:21;46.95;;;15.43;;
31676;SDS011;18385;51.572;6.578;2023-02-15T05:27:05;38.20;;;15.57;;
31676;SDS011;18385;51.572;6.578;2023-02-15T05:29:50;41.45;;;15.68;;
31676;SDS011;18385;51.572;6.578;2023-02-15T05:32:15;42.30;;;15.80;;
31676;SDS011;18385;51.572;6.578;2023-02-15T05:34:41;47.67;;;17.00;;
31676;SDS011;18385;51.572;6.578;2023-02-15T05:37:07;41.67;;;16.35;;
31676;SDS011;18385;51.572;6.578;2023-02-15T05:39:33;44.95;;;16.92;;
31676;SDS011;18385;51.572;6.578;2023-02-15T05:41:59;42.67;;;16.02;;
31676;SDS011;18385;51.572;6.578;2023-02-15T05:44:25;43.05;;;15.60;;
31676;SDS011;18385;51.572;6.578;2023-02-15T05:46:50;39.80;;;15.50;;
31676;SDS011;18385;51.572;6.578;2023-02-15T05:49:16;41.10;;;15.73;;
31676;SDS011;18385;51.572;6.578;2023-02-15T05:51:42;46.60;;;16.58;;
31676;SDS011;18385;51.572;6.578;2023-02-15T05:54:07;43.63;;;16.25;;
31676;SDS011;18385;51.572;6.578;2023-02-15T05:56:33;44.15;;;16.40;;
31676;SDS011;18385;51.572;6.578;2023-02-15T05:58:59;37.78;;;14.27;;
31676;SDS011;18385;51.572;6.578;2023-02-15T06:01:24;39.67;;;16.45;;
31676;SDS011;18385;51.572;6.578;2023-02-15T06:03:50;35.92;;;14.77;;
31676;SDS011;18385;51.572;6.578;2023-02-15T06:06:16;39.55;;;16.17;;
31676;SDS011;18385;51.572;6.578;2023-02-15T06:08:43;40.67;;;17.33;;
31676;SDS011;18385;51.572;6.578;2023-02-15T06:11:08;40.72;;;16.98;;
31676;SDS011;18385;51.572;6.578;2023-02-15T06:13:34;43.10;;;16.20;;
31676;SDS011;18385;51.572;6.578;2023-02-15T06:16:00;39.28;;;15.00;;
31676;SDS011;18385;51.572;6.578;2023-02-15T06:18:26;43.00;;;15.75;;
31676;SDS011;18385;51.572;6.578;2023-02-15T06:20:52;38.00;;;14.85;;
31676;SDS011;18385;51.572;6.578;2023-02-15T06:23:17;36.30;;;14.75;;
31676;SDS011;18385;51.572;6.578;2023-02-15T06:25:44;37.72;;;14.60;;
31676;SDS011;18385;51.572;6.578;2023-02-15T06:28:10;46.38;;;14.85;;
31676;SDS011;18385;51.572;6.578;2023-02-15T06:30:36;37.33;;;14.35;;
31676;SDS011;18385;51.572;6.578;2023-02-15T06:33:02;35.50;;;14.02;;
31676;SDS011;18385;51.572;6.578;2023-02-15T06:35:27;41.63;;;15.30;;
31676;SDS011;18385;51.572;6.578;2023-02-15T06:37:53;35.63;;;14.52;;
31676;SDS011;18385;51.572;6.578;2023-02-15T06:40:19;42.10;;;15.52;;
31676;SDS011;18385;51.572;6.578;2023-02-15T06:42:44;37.80;;;14.95;;
31676;SDS011;18385;51.572;6.578;2023-02-15T06:45:10;40.08;;;15.70;;
31676;SDS011;18385;51.572;6.578;2023-02-15T06:47:36;36.70;;;14.52;;
31676;SDS011;18385;51.572;6.578;2023-02-15T06:50:03;47.78;;;16.13;;
31676;SDS011;18385;51.572;6.578;2023-02-15T06:52:30;35.85;;;14.32;;
31676;SDS011;18385;51.572;6.578;2023-02-15T06:54:56;46.20;;;15.60;;
31676;SDS011;18385;51.572;6.578;2023-02-15T06:57:21;36.08;;;14.40;;
31676;SDS011;18385;51.572;6.578;2023-02-15T06:59:47;39.58;;;14.63;;
31676;SDS011;18385;51.572;6.578;2023-02-15T07:02:13;36.45;;;14.32;;
31676;SDS011;18385;51.572;6.578;2023-02-15T07:04:39;39.33;;;14.60;;
31676;SDS011;18385;51.572;6.578;2023-02-15T07:07:07;37.65;;;14.93;;
31676;SDS011;18385;51.572;6.578;2023-02-15T07:09:35;39.22;;;15.38;;
31676;SDS011;18385;51.572;6.578;2023-02-15T07:12:01;37.95;;;14.25;;
31676;SDS011;18385;51.572;6.578;2023-02-15T07:14:46;41.90;;;15.30;;
31676;SDS011;18385;51.572;6.578;2023-02-15T07:17:11;38.22;;;15.48;;
31676;SDS011;18385;51.572;6.578;2023-02-15T07:19:37;38.58;;;15.55;;
31676;SDS011;18385;51.572;6.578;2023-02-15T07:22:02;38.03;;;14.95;;
31676;SDS011;18385;51.572;6.578;2023-02-15T07:24:29;42.20;;;15.38;;
31676;SDS011;18385;51.572;6.578;2023-02-15T07:26:55;38.33;;;14.88;;
31676;SDS011;18385;51.572;6.578;2023-02-15T07:29:22;39.20;;;15.10;;
31676;SDS011;18385;51.572;6.578;2023-02-15T07:31:48;38.25;;;14.30;;
31676;SDS011;18385;51.572;6.578;2023-02-15T07:34:14;46.22;;;13.88;;
31676;SDS011;18385;51.572;6.578;2023-02-15T07:36:40;37.90;;;13.60;;
31676;SDS011;18385;51.572;6.578;2023-02-15T07:39:06;37.67;;;14.02;;
31676;SDS011;18385;51.572;6.578;2023-02-15T07:41:32;34.58;;;14.35;;
31676;SDS011;18385;51.572;6.578;2023-02-15T07:43:58;33.50;;;13.20;;
31676;SDS011;18385;51.572;6.578;2023-02-15T07:46:24;35.85;;;14.38;;
31676;SDS011;18385;51.572;6.578;2023-02-15T07:48:49;34.50;;;13.43;;
31676;SDS011;18385;51.572;6.578;2023-02-15T07:51:15;34.50;;;13.65;;
31676;SDS011;18385;51.572;6.578;2023-02-15T07:53:41;34.33;;;13.38;;
31676;SDS011;18385;51.572;6.578;2023-02-15T07:56:10;36.97;;;13.23;;
31676;SDS011;18385;51.572;6.578;2023-02-15T07:58:37;41.53;;;15.43;;
31676;SDS011;18385;51.572;6.578;2023-02-15T08:01:16;31.45;;;12.90;;
31676;SDS011;18385;51.572;6.578;2023-02-15T08:03:46;33.20;;;12.48;;
31676;SDS011;18385;51.572;6.578;2023-02-15T08:06:12;28.02;;;12.02;;
31676;SDS011;18385;51.572;6.578;2023-02-15T08:08:38;35.03;;;13.38;;
31676;SDS011;18385;51.572;6.578;2023-02-15T08:11:06;36.08;;;12.73;;
31676;SDS011;18385;51.572;6.578;2023-02-15T08:14:10;33.83;;;12.82;;
31676;SDS011;18385;51.572;6.578;2023-02-15T08:16:47;35.88;;;15.07;;
31676;SDS011;18385;51.572;6.578;2023-02-15T08:21:45;44.15;;;14.25;;
31676;SDS011;18385;51.572;6.578;2023-02-15T08:24:13;34.38;;;13.35;;
31676;SDS011;18385;51.572;6.578;2023-02-15T08:26:40;33.85;;;12.20;;
31676;SDS011;18385;51.572;6.578;2023-02-15T08:29:07;30.95;;;12.32;;
31676;SDS011;18385;51.572;6.578;2023-02-15T08:31:34;31.05;;;12.70;;
31676;SDS011;18385;51.572;6.578;2023-02-15T08:34:02;28.73;;;11.35;;
31676;SDS011;18385;51.572;6.578;2023-02-15T08:36:29;37.40;;;13.18;;
31676;SDS011;18385;51.572;6.578;2023-02-15T08:38:59;32.22;;;11.43;;
31676;SDS011;18385;51.572;6.578;2023-02-15T08:41:28;28.05;;;10.25;;
31676;SDS011;18385;51.572;6.578;2023-02-15T08:43:55;29.52;;;10.98;;
31676;SDS011;18385;51.572;6.578;2023-02-15T08:46:24;34.88;;;12.68;;
31676;SDS011;18385;51.572;6.578;2023-02-15T08:48:51;28.65;;;11.50;;
31676;SDS011;18385;51.572;6.578;2023-02-15T08:51:18;28.27;;;11.63;;
31676;SDS011;18385;51.572;6.578;2023-02-15T08:53:47;32.00;;;12.40;;
31676;SDS011;18385;51.572;6.578;2023-02-15T08:56:14;25.80;;;11.02;;
31676;SDS011;18385;51.572;6.578;2023-02-15T08:58:41;28.48;;;11.98;;
31676;SDS011;18385;51.572;6.578;2023-02-15T09:01:10;26.77;;;12.40;;
31676;SDS011;18385;51.572;6.578;2023-02-15T09:03:43;29.50;;;11.18;;
31676;SDS011;18385;51.572;6.578;2023-02-15T09:06:10;30.55;;;12.13;;
31676;SDS011;18385;51.572;6.578;2023-02-15T09:08:36;29.73;;;11.55;;
31676;SDS011;18385;51.572;6.578;2023-02-15T09:11:20;31.70;;;12.27;;
31676;SDS011;18385;51.572;6.578;2023-02-15T09:13:58;30.85;;;12.48;;
31676;SDS011;18385;51.572;6.578;2023-02-15T09:16:25;25.42;;;11.05;;
31676;SDS011;18385;51.572;6.578;2023-02-15T09:18:53;32.30;;;11.20;;
31676;SDS011;18385;51.572;6.578;2023-02-15T09:21:20;33.60;;;13.15;;
31676;SDS011;18385;51.572;6.578;2023-02-15T09:23:48;31.17;;;12.30;;
31676;SDS011;18385;51.572;6.578;2023-02-15T09:26:16;31.45;;;12.10;;
31676;SDS011;18385;51.572;6.578;2023-02-15T09:28:44;30.92;;;12.02;;
31676;SDS011;18385;51.572;6.578;2023-02-15T09:31:14;35.28;;;13.00;;
31676;SDS011;18385;51.572;6.578;2023-02-15T09:33:41;30.38;;;12.75;;
31676;SDS011;18385;51.572;6.578;2023-02-15T09:36:18;31.73;;;12.52;;
31676;SDS011;18385;51.572;6.578;2023-02-15T09:38:58;31.80;;;12.13;;
31676;SDS011;18385;51.572;6.578;2023-02-15T09:41:41;32.95;;;12.45;;
31676;SDS011;18385;51.572;6.578;2023-02-15T09:56:36;30.33;;;11.50;;
31676;SDS011;18385;51.572;6.578;2023-02-15T09:58:50;30.15;;;11.70;;
31676;SDS011;18385;51.572;6.578;2023-02-15T10:01:44;23.67;;;10.15;;
31676;SDS011;18385;51.572;6.578;2023-02-15T10:04:32;27.33;;;11.38;;
31676;SDS011;18385;51.572;6.578;2023-02-15T10:10:18;24.83;;;10.35;;
31676;SDS011;18385;51.572;6.578;2023-02-15T10:15:53;23.50;;;9.70;;
31676;SDS011;18385;51.572;6.578;2023-02-15T10:21:12;24.30;;;10.38;;
31676;SDS011;18385;51.572;6.578;2023-02-15T10:29:03;25.95;;;10.07;;
31676;SDS011;18385;51.572;6.578;2023-02-15T10:31:36;23.63;;;9.82;;
31676;SDS011;18385;51.572;6.578;2023-02-15T10:34:17;22.38;;;9.35;;
31676;SDS011;18385;51.572;6.578;2023-02-15T10:39:33;20.02;;;8.80;;
31676;SDS011;18385;51.572;6.578;2023-02-15T10:42:30;23.00;;;9.75;;
31676;SDS011;18385;51.572;6.578;2023-02-15T10:56:17;21.55;;;9.13;;
31676;SDS011;18385;51.572;6.578;2023-02-15T11:01:45;19.55;;;8.68;;
31676;SDS011;18385;51.572;6.578;2023-02-15T11:07:18;24.23;;;9.57;;
31676;SDS011;18385;51.572;6.578;2023-02-15T11:09:57;26.30;;;10.65;;
31676;SDS011;18385;51.572;6.578;2023-02-15T11:12:26;25.00;;;10.63;;
31676;SDS011;18385;51.572;6.578;2023-02-15T11:17:28;28.23;;;9.30;;
31676;SDS011;18385;51.572;6.578;2023-02-15T11:22:47;18.10;;;8.95;;
31676;SDS011;18385;51.572;6.578;2023-02-15T11:25:19;20.58;;;9.43;;
31676;SDS011;18385;51.572;6.578;2023-02-15T11:27:49;20.15;;;8.55;;
31676;SDS011;18385;51.572;6.578;2023-02-15T11:30:22;19.95;;;8.02;;
31676;SDS011;18385;51.572;6.578;2023-02-15T11:32:51;19.40;;;8.10;;
31676;SDS011;18385;51.572;6.578;2023-02-15T11:38:03;24.80;;;9.13;;
31676;SDS011;18385;51.572;6.578;2023-02-15T11:40:51;19.65;;;8.80;;
31676;SDS011;18385;51.572;6.578;2023-02-15T11:43:33;17.35;;;8.05;;
31676;SDS011;18385;51.572;6.578;2023-02-15T11:46:13;22.55;;;7.93;;
31676;SDS011;18385;51.572;6.578;2023-02-15T11:48:40;18.73;;;9.65;;
31676;SDS011;18385;51.572;6.578;2023-02-15T11:51:20;19.38;;;8.55;;
31676;SDS011;18385;51.572;6.578;2023-02-15T11:53:47;18.92;;;7.70;;
31676;SDS011;18385;51.572;6.578;2023-02-15T11:56:21;22.35;;;8.40;;
31676;SDS011;18385;51.572;6.578;2023-02-15T12:01:38;17.45;;;7.80;;
31676;SDS011;18385;51.572;6.578;2023-02-15T12:06:49;20.58;;;8.25;;
31676;SDS011;18385;51.572;6.578;2023-02-15T12:11:52;18.83;;;8.13;;
31676;SDS011;18385;51.572;6.578;2023-02-15T12:14:18;27.52;;;9.80;;
31676;SDS011;18385;51.572;6.578;2023-02-15T12:16:48;15.93;;;7.80;;
31676;SDS011;18385;51.572;6.578;2023-02-15T12:21:49;20.42;;;8.85;;
31676;SDS011;18385;51.572;6.578;2023-02-15T12:26:48;19.67;;;9.43;;
31676;SDS011;18385;51.572;6.578;2023-02-15T12:29:35;23.58;;;9.40;;
31676;SDS011;18385;51.572;6.578;2023-02-15T12:32:08;17.27;;;8.07;;
31676;SDS011;18385;51.572;6.578;2023-02-15T12:34:43;20.55;;;8.05;;
31676;SDS011;18385;51.572;6.578;2023-02-15T12:37:15;21.67;;;8.68;;
31676;SDS011;18385;51.572;6.578;2023-02-15T12:39:51;17.13;;;8.48;;
31676;SDS011;18385;51.572;6.578;2023-02-15T12:42:21;20.25;;;7.78;;
31676;SDS011;18385;51.572;6.578;2023-02-15T12:44:53;21.80;;;8.38;;
31676;SDS011;18385;51.572;6.578;2023-02-15T12:47:21;19.90;;;9.50;;
31676;SDS011;18385;51.572;6.578;2023-02-15T12:52:48;15.80;;;7.38;;
31676;SDS011;18385;51.572;6.578;2023-02-15T12:55:26;18.90;;;8.00;;
31676;SDS011;18385;51.572;6.578;2023-02-15T13:00:30;21.67;;;8.93;;
31676;SDS011;18385;51.572;6.578;2023-02-15T13:02:57;19.27;;;8.23;;
31676;SDS011;18385;51.572;6.578;2023-02-15T13:05:35;21.38;;;7.95;;
31676;SDS011;18385;51.572;6.578;2023-02-15T13:08:15;18.92;;;8.57;;
31676;SDS011;18385;51.572;6.578;2023-02-15T13:10:54;22.70;;;8.73;;
31676;SDS011;18385;51.572;6.578;2023-02-15T13:13:36;17.83;;;7.68;;
31676;SDS011;18385;51.572;6.578;2023-02-15T13:16:26;20.30;;;8.07;;
31676;SDS011;18385;51.572;6.578;2023-02-15T13:18:57;19.58;;;8.18;;
31676;SDS011;18385;51.572;6.578;2023-02-15T13:21:29;21.50;;;7.60;;
31676;SDS011;18385;51.572;6.578;2023-02-15T13:24:43;16.50;;;7.18;;
31676;SDS011;18385;51.572;6.578;2023-02-15T13:27:15;19.90;;;7.93;;
31676;SDS011;18385;51.572;6.578;2023-02-15T13:29:44;16.92;;;7.60;;
31676;SDS011;18385;51.572;6.578;2023-02-15T13:32:22;20.50;;;7.53;;
31676;SDS011;18385;51.572;6.578;2023-02-15T13:34:54;16.73;;;8.10;;
31676;SDS011;18385;51.572;6.578;2023-02-15T13:37:28;16.10;;;7.07;;
31676;SDS011;18385;51.572;6.578;2023-02-15T13:40:18;18.63;;;7.43;;
31676;SDS011;18385;51.572;6.578;2023-02-15T13:42:51;23.45;;;8.07;;
31676;SDS011;18385;51.572;6.578;2023-02-15T13:47:58;18.88;;;7.82;;
31676;SDS011;18385;51.572;6.578;2023-02-15T13:53:17;21.88;;;7.68;;
31676;SDS011;18385;51.572;6.578;2023-02-15T14:09:38;16.35;;;7.80;;
31676;SDS011;18385;51.572;6.578;2023-02-15T14:12:21;22.23;;;8.68;;
31676;SDS011;18385;51.572;6.578;2023-02-15T14:17:24;19.45;;;8.25;;
31676;SDS011;18385;51.572;6.578;2023-02-15T14:19:54;18.10;;;8.13;;
31676;SDS011;18385;51.572;6.578;2023-02-15T14:22:41;21.17;;;8.80;;
31676;SDS011;18385;51.572;6.578;2023-02-15T14:27:48;26.98;;;8.70;;
31676;SDS011;18385;51.572;6.578;2023-02-15T14:30:34;16.42;;;7.18;;
31676;SDS011;18385;51.572;6.578;2023-02-15T14:35:41;17.92;;;7.15;;
31676;SDS011;18385;51.572;6.578;2023-02-15T14:38:14;16.55;;;7.75;;
31676;SDS011;18385;51.572;6.578;2023-02-15T14:40:54;18.83;;;7.75;;
31676;SDS011;18385;51.572;6.578;2023-02-15T14:43:45;19.08;;;8.23;;
31676;SDS011;18385;51.572;6.578;2023-02-15T14:46:38;18.13;;;7.18;;
31676;SDS011;18385;51.572;6.578;2023-02-15T14:56:47;19.00;;;8.40;;
31676;SDS011;18385;51.572;6.578;2023-02-15T15:04:37;19.50;;;7.40;;
31676;SDS011;18385;51.572;6.578;2023-02-15T15:07:22;19.73;;;7.75;;
31676;SDS011;18385;51.572;6.578;2023-02-15T15:12:54;20.50;;;7.50;;
31676;SDS011;18385;51.572;6.578;2023-02-15T15:17:56;18.83;;;8.00;;
31676;SDS011;18385;51.572;6.578;2023-02-15T15:23:32;19.02;;;8.13;;
31676;SDS011;18385;51.572;6.578;2023-02-15T15:30:59;16.60;;;7.32;;
31676;SDS011;18385;51.572;6.578;2023-02-15T15:33:38;15.43;;;7.80;;
31676;SDS011;18385;51.572;6.578;2023-02-15T15:42:12;15.48;;;6.65;;
31676;SDS011;18385;51.572;6.578;2023-02-15T15:50:51;19.48;;;8.02;;
31676;SDS011;18385;51.572;6.578;2023-02-15T15:53:20;18.83;;;8.35;;
31676;SDS011;18385;51.572;6.578;2023-02-15T15:55:49;18.98;;;7.25;;
31676;SDS011;18385;51.572;6.578;2023-02-15T15:58:19;22.20;;;7.85;;
31676;SDS011;18385;51.572;6.578;2023-02-15T16:00:52;20.20;;;7.22;;
31676;SDS011;18385;51.572;6.578;2023-02-15T16:03:24;19.52;;;7.10;;
31676;SDS011;18385;51.572;6.578;2023-02-15T16:05:52;19.80;;;8.02;;
31676;SDS011;18385;51.572;6.578;2023-02-15T16:08:30;19.03;;;7.27;;
31676;SDS011;18385;51.572;6.578;2023-02-15T16:10:57;19.15;;;7.15;;
31676;SDS011;18385;51.572;6.578;2023-02-15T16:13:24;18.67;;;8.20;;
31676;SDS011;18385;51.572;6.578;2023-02-15T16:15:52;22.05;;;8.18;;
31676;SDS011;18385;51.572;6.578;2023-02-15T16:18:21;18.45;;;8.20;;
31676;SDS011;18385;51.572;6.578;2023-02-15T16:21:33;20.42;;;8.32;;
31676;SDS011;18385;51.572;6.578;2023-02-15T16:27:08;21.73;;;9.32;;
31676;SDS011;18385;51.572;6.578;2023-02-15T16:29:52;24.48;;;8.48;;
31676;SDS011;18385;51.572;6.578;2023-02-15T16:34:56;22.83;;;9.30;;
31676;SDS011;18385;51.572;6.578;2023-02-15T16:37:24;18.65;;;7.65;;
31676;SDS011;18385;51.572;6.578;2023-02-15T16:39:52;20.48;;;8.15;;
31676;SDS011;18385;51.572;6.578;2023-02-15T16:42:21;21.08;;;7.50;;
31676;SDS011;18385;51.572;6.578;2023-02-15T16:44:55;21.35;;;8.40;;
31676;SDS011;18385;51.572;6.578;2023-02-15T16:47:35;21.38;;;7.97;;
31676;SDS011;18385;51.572;6.578;2023-02-15T16:50:05;18.80;;;7.70;;
31676;SDS011;18385;51.572;6.578;2023-02-15T16:52:41;18.13;;;7.20;;
31676;SDS011;18385;51.572;6.578;2023-02-15T16:55:17;17.13;;;7.80;;
31676;SDS011;18385;51.572;6.578;2023-02-15T16:57:47;15.45;;;7.20;;
31676;SDS011;18385;51.572;6.578;2023-02-15T17:00:18;18.38;;;7.90;;
31676;SDS011;18385;51.572;6.578;2023-02-15T17:02:55;18.55;;;7.85;;
31676;SDS011;18385;51.572;6.578;2023-02-15T17:11:16;21.92;;;7.80;;
31676;SDS011;18385;51.572;6.578;2023-02-15T17:14:47;16.55;;;6.72;;
31676;SDS011;18385;51.572;6.578;2023-02-15T17:17:02;21.27;;;7.93;;
31676;SDS011;18385;51.572;6.578;2023-02-15T17:19:49;15.77;;;6.97;;
31676;SDS011;18385;51.572;6.578;2023-02-15T17:22:19;17.58;;;7.40;;
31676;SDS011;18385;51.572;6.578;2023-02-15T17:24:47;19.33;;;7.93;;
31676;SDS011;18385;51.572;6.578;2023-02-15T17:27:21;19.58;;;7.97;;
31676;SDS011;18385;51.572;6.578;2023-02-15T17:29:51;17.48;;;7.97;;
31676;SDS011;18385;51.572;6.578;2023-02-15T17:32:22;17.33;;;8.20;;
31676;SDS011;18385;51.572;6.578;2023-02-15T17:35:07;18.65;;;7.30;;
31676;SDS011;18385;51.572;6.578;2023-02-15T17:37:45;16.30;;;7.88;;
31676;SDS011;18385;51.572;6.578;2023-02-15T17:42:47;14.95;;;7.40;;
31676;SDS011;18385;51.572;6.578;2023-02-15T17:45:13;17.92;;;7.68;;
31676;SDS011;18385;51.572;6.578;2023-02-15T17:47:39;18.02;;;7.60;;
31676;SDS011;18385;51.572;6.578;2023-02-15T17:50:05;17.75;;;8.07;;
31676;SDS011;18385;51.572;6.578;2023-02-15T17:52:32;17.73;;;7.75;;
31676;SDS011;18385;51.572;6.578;2023-02-15T17:54:58;16.63;;;7.25;;
31676;SDS011;18385;51.572;6.578;2023-02-15T17:57:49;18.42;;;7.82;;
31676;SDS011;18385;51.572;6.578;2023-02-15T18:00:14;20.27;;;9.07;;